createdAt,value
2023-03-20T00:02:01.706Z,13.35
2023-03-20T00:04:53.066Z,13.32
2023-03-20T00:07:42.895Z,13.42
2023-03-20T00:10:38.114Z,13.49
2023-03-20T00:13:31.883Z,13.44
2023-03-20T00:16:33.588Z,13.46
2023-03-20T00:19:24.669Z,13.48
2023-03-20T00:22:15.438Z,13.56
2023-03-20T00:25:05.160Z,13.55
2023-03-20T00:27:54.521Z,13.59
2023-03-20T00:30:46.348Z,13.57
2023-03-20T00:33:35.673Z,13.54
2023-03-20T00:36:25.999Z,13.50
2023-03-20T00:39:16.686Z,13.60
2023-03-20T00:42:08.635Z,13.59
2023-03-20T00:44:59.713Z,13.47
2023-03-20T00:47:52.993Z,13.51
2023-03-20T00:50:42.460Z,13.53
2023-03-20T00:53:31.706Z,13.55
2023-03-20T00:56:45.154Z,13.50
2023-03-20T00:59:37.559Z,13.48
2023-03-20T01:02:31.228Z,13.46
2023-03-20T01:05:23.141Z,13.44
2023-03-20T01:08:18.792Z,13.39
2023-03-20T01:11:11.257Z,13.38
2023-03-20T01:14:02.269Z,13.46
2023-03-20T01:16:51.626Z,13.43
2023-03-20T01:19:40.916Z,13.41
2023-03-20T01:22:30.648Z,13.49
2023-03-20T01:25:20.228Z,13.43
2023-03-20T01:28:19.142Z,13.50
2023-03-20T01:31:11.357Z,13.59
2023-03-20T01:34:01.925Z,13.53
2023-03-20T01:36:54.503Z,13.53
2023-03-20T01:39:44.447Z,13.60
2023-03-20T01:42:33.734Z,13.49
2023-03-20T01:45:28.162Z,13.65
2023-03-20T01:48:21.765Z,13.58
2023-03-20T01:51:11.310Z,13.66
2023-03-20T01:54:06.812Z,13.67
2023-03-20T01:57:05.125Z,13.71
2023-03-20T02:00:03.284Z,13.59
2023-03-20T02:03:07.319Z,13.73
2023-03-20T02:06:25.326Z,13.73
2023-03-20T02:09:32.853Z,13.68
2023-03-20T02:12:24.640Z,13.77
2023-03-20T02:15:15.470Z,13.68
2023-03-20T02:18:24.967Z,13.76
2023-03-20T02:22:22.605Z,13.82
2023-03-20T02:26:01.373Z,13.84
2023-03-20T02:29:51.897Z,13.78
2023-03-20T02:33:24.228Z,13.77
2023-03-20T02:36:51.410Z,13.82
2023-03-20T02:40:11.726Z,13.89
2023-03-20T02:43:15.302Z,13.87
2023-03-20T02:46:21.337Z,13.96
2023-03-20T02:49:23.479Z,13.91
2023-03-20T02:52:21.424Z,13.96
2023-03-20T02:55:21.495Z,13.90
2023-03-20T02:58:17.243Z,13.93
2023-03-20T03:01:15.206Z,14.01
2023-03-20T03:04:10.076Z,13.89
2023-03-20T03:07:00.049Z,13.98
2023-03-20T03:09:55.336Z,13.94
2023-03-20T03:12:49.734Z,13.97
2023-03-20T03:15:43.397Z,13.92
2023-03-20T03:18:36.116Z,13.94
2023-03-20T03:21:25.738Z,13.98
2023-03-20T03:24:40.473Z,13.97
2023-03-20T03:27:38.612Z,13.95
2023-03-20T03:30:34.631Z,13.92
2023-03-20T03:33:27.414Z,13.98
2023-03-20T03:36:30.855Z,13.95
2023-03-20T03:39:31.830Z,13.97
2023-03-20T03:42:30.914Z,13.95
2023-03-20T03:45:26.700Z,14.03
2023-03-20T03:48:22.393Z,14.04
2023-03-20T03:51:17.325Z,13.94
2023-03-20T03:54:23.825Z,13.92
2023-03-20T03:57:48.061Z,13.84
2023-03-20T04:00:46.394Z,13.89
2023-03-20T04:03:41.838Z,13.90
2023-03-20T04:06:31.502Z,13.93
2023-03-20T04:09:20.676Z,13.92
2023-03-20T04:12:35.985Z,13.94
2023-03-20T04:15:27.741Z,13.84
2023-03-20T04:18:19.504Z,13.83
2023-03-20T04:21:12.378Z,13.86
2023-03-20T04:24:01.809Z,13.83
2023-03-20T04:26:51.094Z,13.80
2023-03-20T04:29:40.789Z,13.74
2023-03-20T04:32:50.364Z,13.58
2023-03-20T04:35:49.447Z,13.61
2023-03-20T04:38:41.030Z,13.53
2023-03-20T04:41:30.285Z,13.59
2023-03-20T04:44:20.481Z,13.55
2023-03-20T04:47:10.986Z,13.46
2023-03-20T04:50:04.373Z,13.53
2023-03-20T04:52:54.091Z,13.53
2023-03-20T04:55:45.639Z,13.54
2023-03-20T04:58:36.623Z,13.47
2023-03-20T05:01:26.741Z,13.42
2023-03-20T05:04:16.301Z,13.48
2023-03-20T05:07:05.978Z,13.48
2023-03-20T05:10:03.965Z,13.44
2023-03-20T05:12:59.195Z,13.42
2023-03-20T05:15:54.115Z,13.09
2023-03-20T05:19:06.604Z,13.27
2023-03-20T05:22:04.581Z,13.26
2023-03-20T05:24:54.167Z,13.21
2023-03-20T05:28:06.393Z,13.21
2023-03-20T05:31:08.884Z,13.14
2023-03-20T05:34:14.151Z,13.16
2023-03-20T05:37:23.913Z,13.13
2023-03-20T05:40:27.837Z,13.11
2023-03-20T05:43:35.212Z,13.17
2023-03-20T05:46:46.872Z,13.19
2023-03-20T05:49:51.366Z,13.19
2023-03-20T05:52:58.850Z,13.21
2023-03-20T05:56:07.710Z,13.14
2023-03-20T05:59:04.320Z,13.21
2023-03-20T06:02:01.106Z,13.19
2023-03-20T06:04:54.065Z,13.23
2023-03-20T06:07:52.669Z,13.24
2023-03-20T06:10:42.175Z,13.24
2023-03-20T06:13:33.152Z,13.26
2023-03-20T06:16:24.942Z,13.26
2023-03-20T06:19:15.181Z,13.27
2023-03-20T06:22:05.270Z,13.23
2023-03-20T06:24:56.958Z,13.26
2023-03-20T06:27:54.282Z,13.28
2023-03-20T06:30:43.919Z,13.30
2023-03-20T06:33:40.403Z,13.27
2023-03-20T06:36:31.312Z,13.28
2023-03-20T06:39:29.537Z,13.27
2023-03-20T06:42:19.299Z,13.27
2023-03-20T06:45:12.368Z,13.26
2023-03-20T06:48:22.658Z,13.19
2023-03-20T06:51:14.154Z,13.19
2023-03-20T06:54:12.306Z,13.21
2023-03-20T06:57:01.693Z,13.18
2023-03-20T06:59:51.087Z,13.23
2023-03-20T07:02:40.426Z,13.23
2023-03-20T07:05:36.571Z,13.29
2023-03-20T07:08:30.711Z,13.29
2023-03-20T07:11:21.166Z,13.30
2023-03-20T07:14:11.040Z,13.34
2023-03-20T07:17:23.996Z,13.41
2023-03-20T07:20:16.963Z,13.37
2023-03-20T07:23:06.379Z,13.47
2023-03-20T07:25:59.707Z,13.38
2023-03-20T07:28:48.942Z,13.48
2023-03-20T07:31:46.980Z,13.58
2023-03-20T07:34:47.870Z,13.60
2023-03-20T07:37:37.413Z,13.66
2023-03-20T07:40:27.134Z,13.70
2023-03-20T07:43:20.788Z,13.72
2023-03-20T07:46:43.166Z,13.65
2023-03-20T07:49:32.318Z,13.82
2023-03-20T07:52:22.700Z,13.80
2023-03-20T07:55:12.054Z,13.82
2023-03-20T07:58:01.342Z,13.89
2023-03-20T08:00:52.020Z,13.92
2023-03-20T08:03:41.746Z,13.97
2023-03-20T08:06:31.114Z,14.00
2023-03-20T08:09:20.799Z,14.02
2023-03-20T08:12:10.345Z,14.07
2023-03-20T08:14:59.516Z,14.07
2023-03-20T08:17:50.207Z,14.07
2023-03-20T08:20:39.472Z,14.15
2023-03-20T08:23:28.770Z,14.30
2023-03-20T08:26:17.930Z,14.34
2023-03-20T08:29:07.225Z,14.37
2023-03-20T08:31:57.971Z,14.44
2023-03-20T08:34:48.548Z,14.44
2023-03-20T08:37:38.133Z,14.50
2023-03-20T08:40:27.433Z,14.55
2023-03-20T08:43:16.958Z,14.64
2023-03-20T08:46:07.009Z,14.57
2023-03-20T08:48:56.218Z,14.59
2023-03-20T08:51:46.975Z,14.59
2023-03-20T08:54:36.230Z,14.68
2023-03-20T08:57:25.447Z,14.83
2023-03-20T09:00:17.241Z,14.78
2023-03-20T09:03:06.479Z,15.00
2023-03-20T09:05:55.780Z,15.00
2023-03-20T09:08:46.429Z,15.15
2023-03-20T09:11:36.054Z,15.16
2023-03-20T09:14:25.324Z,15.22
2023-03-20T09:17:14.686Z,15.17
2023-03-20T09:20:04.318Z,15.30
2023-03-20T09:22:53.651Z,15.49
2023-03-20T09:25:44.582Z,15.59
2023-03-20T09:28:33.909Z,15.77
2023-03-20T09:31:24.342Z,15.94
2023-03-20T09:34:13.573Z,16.08
2023-03-20T09:37:04.504Z,16.37
2023-03-20T09:39:53.969Z,16.47
2023-03-20T09:42:53.446Z,16.51
2023-03-20T09:45:56.692Z,16.40
2023-03-20T09:48:54.209Z,16.23
2023-03-20T09:51:49.815Z,16.22
2023-03-20T09:54:53.959Z,16.25
2023-03-20T09:57:49.437Z,16.25
2023-03-20T10:00:39.665Z,16.48
2023-03-20T10:03:33.943Z,16.54
2023-03-20T10:06:23.875Z,17.21
2023-03-20T10:09:18.904Z,17.55
2023-03-20T10:12:42.225Z,18.27
2023-03-20T10:15:48.125Z,18.56
2023-03-20T10:18:43.091Z,18.57
2023-03-20T10:21:41.822Z,18.23
2023-03-20T10:24:37.302Z,17.95
2023-03-20T10:27:30.614Z,17.52
2023-03-20T10:30:55.084Z,17.58
2023-03-20T10:33:57.487Z,17.86
2023-03-20T10:37:06.389Z,18.01
2023-03-20T10:40:09.954Z,18.23
2023-03-20T10:43:04.006Z,18.33
2023-03-20T10:46:01.888Z,18.42
2023-03-20T10:48:58.327Z,18.42
2023-03-20T10:51:52.243Z,18.27
2023-03-20T10:54:44.089Z,18.35
2023-03-20T10:57:42.095Z,18.15
2023-03-20T11:00:31.503Z,18.32
2023-03-20T11:03:26.534Z,18.19
2023-03-20T11:06:21.923Z,17.96
2023-03-20T11:09:19.348Z,17.61
2023-03-20T11:12:19.246Z,17.43
2023-03-20T11:15:25.536Z,17.28
2023-03-20T11:18:17.002Z,17.31
2023-03-20T11:21:16.510Z,17.34
2023-03-20T11:24:06.870Z,17.32
2023-03-20T11:27:05.454Z,17.42
2023-03-20T11:29:56.548Z,17.42
2023-03-20T11:32:50.055Z,17.33
2023-03-20T11:35:39.918Z,17.32
2023-03-20T11:38:32.763Z,17.29
2023-03-20T11:41:26.002Z,17.28
2023-03-20T11:44:25.987Z,17.29
2023-03-20T11:47:23.927Z,17.26
2023-03-20T11:50:31.424Z,17.25
2023-03-20T11:53:32.265Z,17.25
2023-03-20T11:56:25.704Z,17.24
2023-03-20T11:59:18.307Z,17.18
2023-03-20T12:02:23.883Z,17.40
2023-03-20T12:05:34.121Z,17.49
2023-03-20T12:08:29.896Z,17.45
2023-03-20T12:11:40.899Z,17.30
2023-03-20T12:14:39.688Z,17.33
2023-03-20T12:17:39.771Z,17.38
2023-03-20T12:20:37.110Z,17.41
2023-03-20T12:23:35.804Z,17.43
2023-03-20T12:26:33.348Z,17.51
2023-03-20T12:29:30.451Z,17.55
2023-03-20T12:32:25.864Z,17.67
2023-03-20T12:35:20.386Z,17.79
2023-03-20T12:38:24.472Z,17.78
2023-03-20T12:41:17.465Z,17.71
2023-03-20T12:44:39.775Z,17.75
2023-03-20T12:47:58.260Z,17.89
2023-03-20T12:50:54.078Z,18.15
2023-03-20T12:53:56.498Z,18.74
2023-03-20T12:57:05.925Z,19.63
2023-03-20T13:00:17.564Z,20.07
2023-03-20T13:03:33.124Z,20.10
2023-03-20T13:06:37.810Z,20.25
2023-03-20T13:10:04.359Z,20.59
2023-03-20T13:13:06.517Z,20.69
2023-03-20T13:16:12.922Z,21.26
2023-03-20T13:19:11.170Z,21.70
2023-03-20T13:22:07.977Z,21.84
2023-03-20T13:25:07.598Z,21.85
2023-03-20T13:28:04.491Z,21.87
2023-03-20T13:31:01.796Z,21.50
2023-03-20T13:33:59.510Z,21.02
2023-03-20T13:37:19.955Z,20.54
2023-03-20T13:40:21.464Z,20.31
2023-03-20T13:43:25.641Z,19.97
2023-03-20T13:46:20.441Z,19.49
2023-03-20T13:49:17.738Z,19.18
2023-03-20T13:52:14.058Z,19.02
2023-03-20T13:55:21.377Z,19.03
2023-03-20T13:58:29.090Z,19.01
2023-03-20T14:01:27.093Z,18.89
2023-03-20T14:04:20.239Z,18.87
2023-03-20T14:07:29.614Z,18.67
2023-03-20T14:10:40.401Z,18.72
2023-03-20T14:13:31.754Z,18.71
2023-03-20T14:16:22.902Z,18.77
2023-03-20T14:19:21.012Z,18.81
2023-03-20T14:22:19.526Z,18.84
2023-03-20T14:25:18.398Z,18.73
2023-03-20T14:28:25.485Z,18.69
2023-03-20T14:31:26.367Z,18.62
2023-03-20T14:34:24.861Z,18.63
2023-03-20T14:37:31.848Z,18.49
2023-03-20T14:40:25.890Z,18.51
2023-03-20T14:43:26.573Z,18.25
2023-03-20T14:46:27.623Z,18.21
2023-03-20T14:49:50.505Z,18.16
2023-03-20T14:52:55.604Z,18.06
2023-03-20T14:56:08.406Z,18.14
2023-03-20T14:59:02.589Z,18.18
2023-03-20T15:02:00.663Z,18.25
2023-03-20T15:04:49.904Z,18.27
2023-03-20T15:07:41.277Z,18.29
2023-03-20T15:10:31.276Z,18.34
2023-03-20T15:13:21.618Z,18.41
2023-03-20T15:16:13.849Z,18.36
2023-03-20T15:19:15.817Z,18.28
2023-03-20T15:22:15.709Z,18.25
2023-03-20T15:25:05.664Z,18.22
2023-03-20T15:27:56.532Z,18.19
2023-03-20T15:30:47.866Z,18.25
2023-03-20T15:33:42.020Z,18.18
2023-03-20T15:36:37.275Z,18.16
2023-03-20T15:39:29.571Z,18.18
2023-03-20T15:42:22.973Z,18.24
2023-03-20T15:45:27.524Z,17.99
2023-03-20T15:48:19.659Z,17.87
2023-03-20T15:51:11.894Z,17.85
2023-03-20T15:54:08.016Z,17.88
2023-03-20T15:57:01.829Z,17.87
2023-03-20T15:59:51.498Z,17.78
2023-03-20T16:02:41.539Z,17.74
2023-03-20T16:05:32.988Z,17.70
2023-03-20T16:08:27.197Z,17.63
2023-03-20T16:11:19.368Z,17.59
2023-03-20T16:14:13.495Z,17.52
2023-03-20T16:17:04.696Z,17.50
2023-03-20T16:19:54.417Z,17.39
2023-03-20T16:22:45.127Z,17.42
2023-03-20T16:25:35.775Z,17.37
2023-03-20T16:28:27.570Z,17.35
2023-03-20T16:31:21.688Z,17.31
2023-03-20T16:34:20.233Z,17.18
2023-03-20T16:37:24.793Z,17.23
2023-03-20T16:40:25.232Z,17.06
2023-03-20T16:43:18.887Z,17.04
2023-03-20T16:46:09.911Z,17.05
2023-03-20T16:49:17.725Z,17.02
2023-03-20T16:52:13.468Z,17.00
2023-03-20T16:55:03.089Z,16.98
2023-03-20T16:57:57.614Z,16.91
2023-03-20T17:00:52.159Z,16.89
2023-03-20T17:03:52.730Z,16.95
2023-03-20T17:06:49.852Z,16.87
2023-03-20T17:09:39.159Z,16.89
2023-03-20T17:12:33.343Z,16.68
2023-03-20T17:15:25.148Z,16.63
2023-03-20T17:18:15.608Z,16.60
2023-03-20T17:21:06.641Z,16.55
2023-03-20T17:23:55.911Z,16.59
2023-03-20T17:26:51.293Z,16.52
2023-03-20T17:29:40.796Z,16.58
2023-03-20T17:32:30.066Z,16.51
2023-03-20T17:35:20.178Z,16.60
2023-03-20T17:38:22.671Z,16.59
2023-03-20T17:41:16.478Z,16.56
2023-03-20T17:44:05.919Z,16.60
2023-03-20T17:46:58.872Z,16.62
2023-03-20T17:49:51.941Z,16.60
2023-03-20T17:52:41.250Z,16.67
2023-03-20T17:55:32.021Z,16.57
2023-03-20T17:58:23.539Z,16.54
2023-03-20T18:01:13.378Z,16.48
2023-03-20T18:04:02.705Z,16.51
2023-03-20T18:06:51.932Z,16.50
2023-03-20T18:09:42.056Z,16.33
2023-03-20T18:12:34.509Z,16.28
2023-03-20T18:15:23.737Z,16.19
2023-03-20T18:18:13.233Z,16.12
2023-03-20T18:21:02.495Z,16.09
2023-03-20T18:23:51.949Z,16.00
2023-03-20T18:26:43.482Z,15.99
2023-03-20T18:29:34.250Z,16.01
2023-03-20T18:32:23.436Z,15.97
2023-03-20T18:35:13.052Z,15.93
2023-03-20T18:38:02.630Z,15.86
2023-03-20T18:40:52.798Z,15.94
2023-03-20T18:43:42.719Z,15.91
2023-03-20T18:46:33.378Z,15.94
2023-03-20T18:49:23.443Z,15.95
2023-03-20T18:52:14.534Z,15.96
2023-03-20T18:55:04.275Z,15.99
2023-03-20T18:57:54.027Z,15.99
2023-03-20T19:00:43.216Z,15.87
2023-03-20T19:03:39.451Z,15.92
2023-03-20T19:06:30.015Z,15.86
2023-03-20T19:09:19.538Z,15.91
2023-03-20T19:12:08.855Z,15.95
2023-03-20T19:14:58.032Z,15.91
2023-03-20T19:17:47.338Z,15.93
2023-03-20T19:20:40.880Z,15.82
2023-03-20T19:23:30.169Z,15.76
2023-03-20T19:26:22.497Z,15.63
2023-03-20T19:29:14.125Z,15.63
2023-03-20T19:32:03.566Z,15.57
2023-03-20T19:35:40.906Z,15.52
2023-03-20T19:38:03.934Z,15.50
2023-03-20T19:40:55.753Z,15.45
2023-03-20T19:44:11.208Z,15.48
2023-03-20T19:47:00.463Z,15.46
2023-03-20T19:49:50.140Z,15.45
2023-03-20T19:52:39.476Z,15.36
2023-03-20T19:55:31.190Z,15.37
2023-03-20T19:58:22.241Z,15.31
2023-03-20T20:01:17.728Z,15.31
2023-03-20T20:04:07.799Z,15.35
2023-03-20T20:07:17.612Z,15.32
2023-03-20T20:10:07.808Z,15.37
2023-03-20T20:12:58.480Z,15.32
2023-03-20T20:15:48.411Z,15.27
2023-03-20T20:18:38.266Z,15.15
2023-03-20T20:24:37.091Z,15.22
2023-03-20T20:27:29.177Z,15.23
2023-03-20T20:30:22.045Z,15.16
2023-03-20T20:33:11.906Z,15.02
2023-03-20T20:36:49.454Z,15.03
2023-03-20T20:39:10.916Z,14.84
2023-03-20T20:42:01.207Z,14.90
2023-03-20T20:44:50.986Z,14.91
2023-03-20T20:47:44.966Z,14.89
2023-03-20T20:50:36.895Z,14.90
2023-03-20T20:53:26.360Z,14.87
2023-03-20T20:56:15.669Z,14.88
2023-03-20T20:59:05.028Z,14.90
2023-03-20T21:01:54.860Z,14.86
2023-03-20T21:04:45.902Z,14.85
2023-03-20T21:07:36.287Z,14.87
2023-03-20T21:10:26.088Z,14.92
2023-03-20T21:13:15.964Z,14.85
2023-03-20T21:16:09.315Z,14.83
2023-03-20T21:18:58.818Z,14.85
2023-03-20T21:21:49.486Z,14.72
2023-03-20T21:24:39.845Z,14.67
2023-03-20T21:27:29.603Z,14.69
2023-03-20T21:30:19.117Z,14.77
2023-03-20T21:33:08.593Z,14.77
2023-03-20T21:35:58.074Z,14.71
2023-03-20T21:41:59.622Z,14.63
2023-03-20T21:46:06.623Z,14.50
2023-03-20T21:48:30.633Z,14.55
2023-03-20T21:52:07.346Z,14.55
2023-03-20T22:05:02.003Z,14.53
2023-03-20T22:08:09.552Z,14.52
2023-03-20T22:27:18.720Z,14.44
2023-03-20T22:33:22.768Z,14.38
2023-03-20T22:40:04.189Z,14.39
2023-03-20T22:45:24.085Z,14.39
2023-03-20T22:48:15.611Z,14.36
2023-03-20T22:51:05.077Z,14.12
2023-03-20T22:53:54.674Z,14.31
2023-03-20T22:56:47.294Z,14.27
2023-03-20T22:59:40.512Z,14.24
2023-03-20T23:02:29.841Z,14.30
2023-03-20T23:05:19.297Z,14.20
2023-03-20T23:08:12.405Z,14.14
2023-03-20T23:11:01.626Z,14.14
2023-03-20T23:13:51.636Z,14.06
2023-03-20T23:16:42.978Z,14.04
2023-03-20T23:19:44.637Z,13.99
2023-03-20T23:22:35.954Z,13.95
2023-03-20T23:25:38.829Z,13.94
2023-03-20T23:28:31.883Z,13.89
2023-03-20T23:31:23.612Z,13.90
2023-03-20T23:34:17.964Z,13.92
2023-03-20T23:37:07.532Z,13.89
2023-03-20T23:39:57.260Z,13.85
2023-03-20T23:42:46.607Z,13.86
2023-03-20T23:45:36.260Z,13.81
2023-03-20T23:48:26.020Z,13.81
2023-03-20T23:51:16.771Z,13.79
2023-03-20T23:54:06.596Z,13.79
2023-03-20T23:56:56.048Z,13.76
2023-03-20T23:59:45.670Z,13.64
